createdAt,value
2023-04-18T00:00:12.153Z,99024.53
2023-04-18T00:03:02.366Z,99017.44
2023-04-18T00:05:30.955Z,99021.00
2023-04-18T00:07:58.086Z,99015.66
2023-04-18T00:10:25.307Z,99015.59
2023-04-18T00:12:52.444Z,99011.19
2023-04-18T00:15:19.292Z,99020.00
2023-04-18T00:17:48.240Z,99014.75
2023-04-18T00:20:15.244Z,99018.28
2023-04-18T00:22:46.765Z,99015.72
2023-04-18T00:25:13.740Z,99018.34
2023-04-18T00:27:41.377Z,99022.81
2023-04-18T00:30:09.174Z,99025.44
2023-04-18T00:32:36.472Z,99021.97
2023-04-18T00:35:04.211Z,99014.88
2023-04-18T00:37:31.519Z,99024.59
2023-04-18T00:39:58.330Z,99021.97
2023-04-18T00:42:27.867Z,99022.00
2023-04-18T00:44:54.913Z,99024.03
2023-04-18T00:47:22.154Z,99020.41
2023-04-18T00:49:49.434Z,99025.53
2023-04-18T00:52:18.540Z,99024.66
2023-04-18T00:54:45.547Z,99026.34
2023-04-18T00:57:13.232Z,99021.00
2023-04-18T00:59:40.725Z,99014.00
2023-04-18T01:02:08.054Z,99017.38
2023-04-18T01:04:35.399Z,99016.41
2023-04-18T01:07:03.448Z,99013.72
2023-04-18T01:09:30.733Z,99020.63
2023-04-18T01:11:57.882Z,99019.72
2023-04-18T01:14:24.787Z,99009.94
2023-04-18T01:16:51.974Z,99014.44
2023-04-18T01:19:18.853Z,99007.53
2023-04-18T01:21:46.058Z,99008.50
2023-04-18T01:24:17.699Z,99011.09
2023-04-18T01:26:49.503Z,99009.19
2023-04-18T01:29:16.510Z,99009.13
2023-04-18T01:31:43.759Z,99010.84
2023-04-18T01:34:10.826Z,99015.16
2023-04-18T01:36:39.642Z,99005.41
2023-04-18T01:39:07.198Z,99004.53
2023-04-18T01:41:34.356Z,99008.91
2023-04-18T01:44:01.750Z,99008.91
2023-04-18T01:46:29.089Z,99007.13
2023-04-18T01:48:56.673Z,99013.25
2023-04-18T01:51:23.866Z,99014.09
2023-04-18T01:53:51.122Z,99018.44
2023-04-18T01:56:18.286Z,99009.63
2023-04-18T01:58:45.208Z,99019.31
2023-04-18T02:01:12.569Z,99024.50
2023-04-18T02:03:40.031Z,99024.56
2023-04-18T02:06:07.781Z,99017.59
2023-04-18T02:08:36.044Z,99018.44
2023-04-18T02:11:03.870Z,99015.94
2023-04-18T02:13:31.210Z,99019.59
2023-04-18T02:15:58.505Z,99013.59
2023-04-18T02:18:26.752Z,99006.81
2023-04-18T02:20:54.045Z,99022.69
2023-04-18T02:23:20.905Z,99020.28
2023-04-18T02:25:48.016Z,99025.69
2023-04-18T02:28:14.862Z,99031.09
2023-04-18T02:30:42.030Z,99034.72
2023-04-18T02:33:08.944Z,99026.03
2023-04-18T02:35:38.057Z,99027.88
2023-04-18T02:38:04.928Z,99027.97
2023-04-18T02:40:32.070Z,99034.19
2023-04-18T02:42:58.999Z,99037.84
2023-04-18T02:45:26.246Z,99030.94
2023-04-18T02:47:56.066Z,99035.50
2023-04-18T02:50:25.122Z,99032.13
2023-04-18T02:52:52.125Z,99036.63
2023-04-18T02:55:19.366Z,99033.28
2023-04-18T02:57:46.392Z,99034.22
2023-04-18T03:00:14.225Z,99033.47
2023-04-18T03:02:41.189Z,99035.31
2023-04-18T03:05:08.668Z,99036.28
2023-04-18T03:07:35.840Z,99039.88
2023-04-18T03:10:03.093Z,99043.34
2023-04-18T03:12:29.923Z,99037.28
2023-04-18T03:14:57.165Z,99046.13
2023-04-18T03:17:24.133Z,99041.03
2023-04-18T03:19:51.294Z,99039.44
2023-04-18T03:22:18.109Z,99048.28
2023-04-18T03:24:45.281Z,99052.72
2023-04-18T03:27:13.033Z,99049.34
2023-04-18T03:29:40.281Z,99052.88
2023-04-18T03:32:07.126Z,99052.97
2023-04-18T03:34:34.204Z,99058.38
2023-04-18T03:37:01.263Z,99056.75
2023-04-18T03:39:28.395Z,99057.81
2023-04-18T03:41:55.335Z,99062.25
2023-04-18T03:44:22.466Z,99059.66
2023-04-18T03:46:49.473Z,99064.94
2023-04-18T03:49:16.666Z,99065.88
2023-04-18T03:51:49.084Z,99065.03
2023-04-18T03:54:17.267Z,99063.25
2023-04-18T03:56:45.204Z,99065.84
2023-04-18T03:59:12.580Z,99064.91
2023-04-18T04:01:39.491Z,99067.53
2023-04-18T04:04:06.969Z,99070.06
2023-04-18T04:06:33.965Z,99077.88
2023-04-18T04:09:01.333Z,99082.13
2023-04-18T04:11:28.323Z,99087.34
2023-04-18T04:13:55.525Z,99088.16
2023-04-18T04:16:22.480Z,99086.31
2023-04-18T04:18:49.718Z,99089.81
2023-04-18T04:21:17.306Z,99088.00
2023-04-18T04:23:46.365Z,99094.91
2023-04-18T04:26:15.141Z,99093.09
2023-04-18T04:28:46.421Z,99105.28
2023-04-18T04:31:13.416Z,99100.88
2023-04-18T04:33:41.129Z,99108.72
2023-04-18T04:36:09.068Z,99112.16
2023-04-18T04:38:38.588Z,99112.06
2023-04-18T04:41:09.289Z,99113.69
2023-04-18T04:43:36.680Z,99112.81
2023-04-18T04:46:04.611Z,99114.47
2023-04-18T04:48:31.877Z,99124.91
2023-04-18T04:51:00.664Z,99125.66
2023-04-18T04:53:32.752Z,99134.38
2023-04-18T04:55:59.672Z,99127.34
2023-04-18T04:58:27.168Z,99125.56
2023-04-18T05:00:55.010Z,99127.34
2023-04-18T05:03:22.583Z,99132.59
2023-04-18T05:05:49.560Z,99135.13
2023-04-18T05:08:16.656Z,99139.41
2023-04-18T05:10:43.580Z,99128.91
2023-04-18T05:13:10.759Z,99128.91
2023-04-18T05:15:39.604Z,99136.78
2023-04-18T05:18:06.835Z,99145.41
2023-04-18T05:20:33.715Z,99137.31
2023-04-18T05:23:01.107Z,99140.66
2023-04-18T05:25:29.773Z,99144.88
2023-04-18T05:27:57.345Z,99138.66
2023-04-18T05:30:24.252Z,99142.88
2023-04-18T05:32:51.505Z,99136.59
2023-04-18T05:35:18.520Z,99145.06
2023-04-18T05:37:45.782Z,99150.94
2023-04-18T05:40:13.329Z,99155.47
2023-04-18T05:42:40.525Z,99150.22
2023-04-18T05:45:08.016Z,99150.09
2023-04-18T05:47:35.160Z,99147.31
2023-04-18T05:50:02.124Z,99153.09
2023-04-18T05:52:29.295Z,99144.06
2023-04-18T05:54:56.160Z,99147.59
2023-04-18T05:57:23.322Z,99148.25
2023-04-18T05:59:50.166Z,99157.66
2023-04-18T06:02:17.414Z,99153.91
2023-04-18T06:04:45.293Z,99139.28
2023-04-18T06:07:12.819Z,99157.31
2023-04-18T06:09:39.929Z,99154.19
2023-04-18T06:12:07.207Z,99149.31
2023-04-18T06:14:34.082Z,99158.31
2023-04-18T06:17:01.317Z,99151.28
2023-04-18T06:19:28.222Z,99165.03
2023-04-18T06:21:55.442Z,99160.94
2023-04-18T06:24:23.160Z,99159.69
2023-04-18T06:26:50.375Z,99164.28
2023-04-18T06:29:18.301Z,99168.47
2023-04-18T06:31:46.814Z,99164.19
2023-04-18T06:34:14.355Z,99168.31
2023-04-18T06:36:41.720Z,99172.66
2023-04-18T06:39:08.984Z,99162.94
2023-04-18T06:41:36.080Z,99168.50
2023-04-18T06:44:04.623Z,99166.97
2023-04-18T06:46:32.799Z,99175.84
2023-04-18T06:48:59.848Z,99177.78
2023-04-18T06:51:27.619Z,99178.16
2023-04-18T06:53:54.607Z,99178.44
2023-04-18T06:56:21.878Z,99176.88
2023-04-18T06:58:49.761Z,99176.09
2023-04-18T07:01:17.025Z,99163.00
2023-04-18T07:03:44.159Z,99166.03
2023-04-18T07:06:11.389Z,99158.69
2023-04-18T07:08:38.409Z,99165.25
2023-04-18T07:11:06.782Z,99165.25
2023-04-18T07:13:33.713Z,99169.94
2023-04-18T07:16:01.687Z,99165.69
2023-04-18T07:18:37.150Z,99171.47
2023-04-18T07:21:07.850Z,99176.19
2023-04-18T07:23:35.817Z,99164.28
2023-04-18T07:26:03.692Z,99160.69
2023-04-18T07:28:31.946Z,99170.28
2023-04-18T07:30:59.388Z,99163.06
2023-04-18T07:33:26.369Z,99175.75
2023-04-18T07:35:53.545Z,99172.50
2023-04-18T07:38:20.703Z,99170.53
2023-04-18T07:40:57.178Z,99165.16
2023-04-18T07:43:24.280Z,99171.69
2023-04-18T07:45:52.202Z,99166.69
2023-04-18T07:48:22.212Z,99171.88
2023-04-18T07:50:49.691Z,99169.47
2023-04-18T07:53:16.920Z,99166.66
2023-04-18T07:55:44.773Z,99172.38
2023-04-18T07:58:11.668Z,99169.66
2023-04-18T08:00:39.372Z,99170.75
2023-04-18T08:03:07.805Z,99161.06
2023-04-18T08:05:35.138Z,99173.06
2023-04-18T08:08:02.349Z,99175.75
2023-04-18T08:10:29.643Z,99169.00
2023-04-18T08:12:56.510Z,99161.03
2023-04-18T08:15:23.735Z,99169.00
2023-04-18T08:17:51.524Z,99169.00
2023-04-18T08:20:18.732Z,99174.78
2023-04-18T08:23:02.257Z,99165.47
2023-04-18T08:25:33.316Z,99169.78
2023-04-18T08:28:00.699Z,99170.81
2023-04-18T08:30:28.178Z,99162.63
2023-04-18T08:32:55.158Z,99162.94
2023-04-18T08:35:22.582Z,99178.22
2023-04-18T08:37:49.402Z,99174.91
2023-04-18T08:40:16.938Z,99179.16
2023-04-18T08:42:47.092Z,99179.91
2023-04-18T08:45:14.734Z,99175.28
2023-04-18T08:47:42.404Z,99172.91
2023-04-18T08:50:10.674Z,99177.94
2023-04-18T08:52:39.745Z,99174.44
2023-04-18T08:55:07.450Z,99179.03
2023-04-18T08:57:36.006Z,99173.09
2023-04-18T09:00:10.333Z,99169.56
2023-04-18T09:02:46.992Z,99169.28
2023-04-18T09:05:16.643Z,99172.25
2023-04-18T09:07:43.565Z,99171.88
2023-04-18T09:10:12.685Z,99169.75
2023-04-18T09:12:50.209Z,99164.03
2023-04-18T09:15:23.329Z,99173.34
2023-04-18T09:17:56.264Z,99169.69
2023-04-18T09:20:35.802Z,99165.41
2023-04-18T09:23:04.007Z,99165.75
2023-04-18T09:25:36.140Z,99163.84
2023-04-18T09:28:05.057Z,99168.09
2023-04-18T09:30:40.676Z,99164.72
2023-04-18T09:33:12.746Z,99158.66
2023-04-18T09:35:39.996Z,99165.22
2023-04-18T09:38:07.912Z,99153.44
2023-04-18T09:40:35.762Z,99150.66
2023-04-18T09:43:19.199Z,99157.41
2023-04-18T09:45:50.191Z,99152.09
2023-04-18T09:48:17.175Z,99152.72
2023-04-18T09:50:46.371Z,99152.59
2023-04-18T09:53:15.569Z,99146.22
2023-04-18T09:55:43.017Z,99147.47
2023-04-18T09:58:11.058Z,99146.72
2023-04-18T10:00:39.900Z,99134.97
2023-04-18T10:03:08.852Z,99130.72
2023-04-18T10:05:39.178Z,99131.31
2023-04-18T10:08:06.999Z,99138.72
2023-04-18T10:10:34.267Z,99124.03
2023-04-18T10:13:03.017Z,99126.69
2023-04-18T10:15:32.099Z,99115.03
2023-04-18T10:18:07.100Z,99132.03
2023-04-18T10:20:35.404Z,99120.75
2023-04-18T10:23:36.343Z,99110.56
2023-04-18T10:26:08.168Z,99121.91
2023-04-18T10:28:56.476Z,99115.78
2023-04-18T10:31:25.789Z,99114.16
2023-04-18T10:36:28.732Z,99108.81
2023-04-18T10:39:00.628Z,99105.03
2023-04-18T10:41:32.334Z,99098.50
2023-04-18T10:44:08.846Z,99099.34
2023-04-18T10:46:38.222Z,99100.31
2023-04-18T10:49:20.205Z,99089.16
2023-04-18T10:51:49.699Z,99086.56
2023-04-18T10:54:46.509Z,99083.31
2023-04-18T10:57:13.975Z,99085.66
2023-04-18T10:59:48.343Z,99074.63
2023-04-18T11:02:24.784Z,99076.28
2023-04-18T11:04:56.998Z,99075.19
2023-04-18T11:07:48.910Z,99058.69
2023-04-18T11:10:24.613Z,99078.94
2023-04-18T11:12:52.767Z,99061.28
2023-04-18T11:15:22.231Z,99063.56
2023-04-18T11:18:01.387Z,99057.59
2023-04-18T11:20:30.124Z,99066.53
2023-04-18T11:22:58.884Z,99062.72
2023-04-18T11:25:28.941Z,99061.41
2023-04-18T11:28:00.206Z,99059.69
2023-04-18T11:30:28.450Z,99055.34
2023-04-18T11:32:56.055Z,99063.09
2023-04-18T11:35:23.090Z,99055.00
2023-04-18T11:37:51.300Z,99044.25
2023-04-18T11:40:18.373Z,99043.72
2023-04-18T11:42:45.663Z,99046.03
2023-04-18T11:45:14.542Z,99048.88
2023-04-18T11:47:43.268Z,99043.81
2023-04-18T11:50:12.424Z,99033.53
2023-04-18T11:52:41.701Z,99028.50
2023-04-18T11:55:25.517Z,99029.22
2023-04-18T11:57:56.876Z,99035.31
2023-04-18T12:00:38.748Z,99018.72
2023-04-18T12:03:16.306Z,99021.41
2023-04-18T12:05:43.771Z,99018.16
2023-04-18T12:08:11.911Z,99021.97
2023-04-18T12:10:51.871Z,99021.69
2023-04-18T12:13:24.085Z,99017.53
2023-04-18T12:15:51.100Z,99015.31
2023-04-18T12:18:19.927Z,99017.13
2023-04-18T12:20:51.686Z,99009.19
2023-04-18T12:23:32.343Z,99010.53
2023-04-18T12:26:13.044Z,99012.88
2023-04-18T12:28:44.422Z,99006.72
2023-04-18T12:31:11.532Z,99006.34
2023-04-18T12:33:38.668Z,98999.53
2023-04-18T12:36:06.221Z,99002.66
2023-04-18T12:38:33.388Z,99005.94
2023-04-18T12:41:00.369Z,98994.88
2023-04-18T12:43:27.580Z,99000.81
2023-04-18T12:45:54.512Z,98995.13
2023-04-18T12:48:21.661Z,98990.31
2023-04-18T12:50:48.518Z,98993.28
2023-04-18T12:53:15.758Z,98982.59
2023-04-18T12:55:42.669Z,98978.09
2023-04-18T12:58:09.874Z,98973.53
2023-04-18T13:00:37.271Z,98992.63
2023-04-18T13:03:04.980Z,98982.66
2023-04-18T13:05:34.015Z,98975.75
2023-04-18T13:10:32.157Z,98974.91
2023-04-18T13:12:59.295Z,98960.72
2023-04-18T13:15:27.726Z,98972.75
2023-04-18T13:17:58.453Z,98966.28
2023-04-18T13:20:25.587Z,98966.28
2023-04-18T13:22:52.780Z,98964.72
2023-04-18T13:25:19.730Z,98969.47
2023-04-18T13:27:46.955Z,98974.94
2023-04-18T13:30:14.009Z,98972.59
2023-04-18T13:32:41.624Z,98969.81
2023-04-18T13:35:10.949Z,98963.63
2023-04-18T13:37:38.757Z,98970.88
2023-04-18T13:40:06.991Z,98971.97
2023-04-18T13:42:35.927Z,98970.53
2023-04-18T13:45:03.381Z,98962.28
2023-04-18T13:47:30.638Z,98965.94
2023-04-18T13:49:57.989Z,98967.25
2023-04-18T13:52:25.932Z,98966.66
2023-04-18T13:54:53.135Z,98959.59
2023-04-18T13:57:21.049Z,98965.44
2023-04-18T13:59:47.981Z,98951.59
2023-04-18T14:02:15.361Z,98952.31
2023-04-18T14:04:42.613Z,98958.66
2023-04-18T14:07:09.974Z,98962.41
2023-04-18T14:09:36.857Z,98944.66
2023-04-18T14:12:04.341Z,98947.59
2023-04-18T14:14:31.252Z,98957.28
2023-04-18T14:16:58.407Z,98950.63
2023-04-18T14:19:25.378Z,98939.19
2023-04-18T14:21:52.527Z,98952.19
2023-04-18T14:24:19.458Z,98945.63
2023-04-18T14:26:46.632Z,98945.75
2023-04-18T14:29:14.455Z,98955.84
2023-04-18T14:31:42.011Z,98945.28
2023-04-18T14:34:09.841Z,98945.19
2023-04-18T14:36:37.103Z,98948.91
2023-04-18T14:39:04.841Z,98948.53
2023-04-18T14:41:32.067Z,98942.19
2023-04-18T14:43:59.535Z,98947.38
2023-04-18T14:46:28.281Z,98939.69
2023-04-18T14:48:55.318Z,98939.44
2023-04-18T14:51:24.162Z,98935.91
2023-04-18T14:53:51.364Z,98936.03
2023-04-18T14:56:21.222Z,98936.78
2023-04-18T14:58:48.533Z,98922.44
2023-04-18T15:01:17.571Z,98924.28
2023-04-18T15:03:45.574Z,98933.97
2023-04-18T15:06:12.965Z,98939.44
2023-04-18T15:08:39.927Z,98931.25
2023-04-18T15:11:08.268Z,98931.00
2023-04-18T15:13:35.293Z,98921.28
2023-04-18T15:16:02.644Z,98925.88
2023-04-18T15:18:29.624Z,98924.41
2023-04-18T15:20:59.284Z,98924.66
2023-04-18T15:23:26.223Z,98927.75
2023-04-18T15:25:53.392Z,98925.66
2023-04-18T15:28:20.334Z,98917.16
2023-04-18T15:30:47.564Z,98927.53
2023-04-18T15:33:15.692Z,98922.22
2023-04-18T15:35:42.894Z,98917.47
2023-04-18T15:38:09.759Z,98916.81
2023-04-18T15:40:37.079Z,98921.31
2023-04-18T15:43:04.299Z,98918.00
2023-04-18T15:45:31.892Z,98915.03
2023-04-18T15:47:58.868Z,98928.09
2023-04-18T15:50:26.189Z,98916.06
2023-04-18T15:52:53.225Z,98927.38
2023-04-18T15:55:20.379Z,98923.78
2023-04-18T15:57:47.269Z,98919.31
2023-04-18T16:00:17.792Z,98925.22
2023-04-18T16:02:45.451Z,98919.38
2023-04-18T16:05:13.894Z,98920.50
2023-04-18T16:07:42.427Z,98922.75
2023-04-18T16:10:10.842Z,98921.56
2023-04-18T16:12:39.116Z,98928.06
2023-04-18T16:15:08.726Z,98929.22
2023-04-18T16:17:36.065Z,98923.03
2023-04-18T16:20:03.828Z,98925.09
2023-04-18T16:22:30.792Z,98921.91
2023-04-18T16:24:57.915Z,98934.75
2023-04-18T16:27:24.877Z,98929.84
2023-04-18T16:29:53.773Z,98929.41
2023-04-18T16:32:21.248Z,98932.56
2023-04-18T16:34:48.593Z,98930.44
2023-04-18T16:37:15.755Z,98940.53
2023-04-18T16:39:42.996Z,98942.84
2023-04-18T16:42:10.272Z,98937.19
2023-04-18T16:44:39.376Z,98945.66
2023-04-18T16:47:08.320Z,98936.66
2023-04-18T16:49:35.767Z,98948.28
2023-04-18T16:52:02.709Z,98937.09
2023-04-18T16:54:30.042Z,98939.41
2023-04-18T16:56:57.144Z,98940.81
2023-04-18T16:59:24.421Z,98936.88
2023-04-18T17:01:51.331Z,98937.53
2023-04-18T17:04:18.611Z,98937.34
2023-04-18T17:06:45.592Z,98945.22
2023-04-18T17:09:14.623Z,98940.59
2023-04-18T17:11:42.002Z,98941.25
2023-04-18T17:14:09.424Z,98947.09
2023-04-18T17:16:40.888Z,98938.03
2023-04-18T17:19:09.137Z,98946.47
2023-04-18T17:21:37.090Z,98942.56
2023-04-18T17:24:06.788Z,98936.97
2023-04-18T17:26:35.378Z,98940.91
2023-04-18T17:29:04.391Z,98939.66
2023-04-18T17:31:32.230Z,98943.50
2023-04-18T17:34:00.151Z,98937.72
2023-04-18T17:36:27.314Z,98936.28
2023-04-18T17:38:54.586Z,98941.06
2023-04-18T17:41:22.008Z,98941.41
2023-04-18T17:43:51.075Z,98941.69
2023-04-18T17:46:18.336Z,98942.88
2023-04-18T17:48:45.629Z,98944.00
2023-04-18T17:51:12.604Z,98947.84
2023-04-18T17:53:39.726Z,98951.69
2023-04-18T17:56:06.624Z,98949.28
2023-04-18T17:58:33.841Z,98948.69
2023-04-18T18:01:00.772Z,98943.72
2023-04-18T18:03:28.277Z,98942.38
2023-04-18T18:05:55.323Z,98942.69
2023-04-18T18:08:22.783Z,98943.97
2023-04-18T18:10:50.022Z,98942.56
2023-04-18T18:13:17.309Z,98939.47
2023-04-18T18:15:44.209Z,98941.69
2023-04-18T18:18:11.556Z,98942.09
2023-04-18T18:20:42.081Z,98939.09
2023-04-18T18:23:09.260Z,98939.56
2023-04-18T18:25:37.844Z,98939.22
2023-04-18T18:28:05.201Z,98939.84
2023-04-18T18:30:32.045Z,98935.94
2023-04-18T18:33:00.766Z,98936.41
2023-04-18T18:35:27.754Z,98931.59
2023-04-18T18:37:54.940Z,98933.78
2023-04-18T18:40:22.094Z,98934.22
2023-04-18T18:42:54.700Z,98933.00
2023-04-18T18:45:21.761Z,98929.97
2023-04-18T18:47:49.048Z,98925.19
2023-04-18T18:50:15.995Z,98923.91
2023-04-18T18:52:43.352Z,98924.28
2023-04-18T18:55:11.322Z,98928.19
2023-04-18T18:57:38.487Z,98930.34
2023-04-18T19:00:10.874Z,98930.63
2023-04-18T19:02:38.932Z,98929.41
2023-04-18T19:05:06.916Z,98928.00
2023-04-18T19:07:34.180Z,98933.69
2023-04-18T19:10:01.848Z,98936.75
2023-04-18T19:12:29.374Z,98925.47
2023-04-18T19:14:56.325Z,98930.84
2023-04-18T19:17:24.920Z,98927.47
2023-04-18T19:19:52.964Z,98919.63
2023-04-18T19:22:20.132Z,98925.03
2023-04-18T19:24:47.020Z,98918.13
2023-04-18T19:27:14.158Z,98919.03
2023-04-18T19:29:41.097Z,98921.69
2023-04-18T19:32:08.279Z,98917.34
2023-04-18T19:34:35.464Z,98919.97
2023-04-18T19:37:02.622Z,98915.72
2023-04-18T19:39:29.812Z,98913.13
2023-04-18T19:41:57.074Z,98910.50
2023-04-18T19:44:23.941Z,98908.84
2023-04-18T19:46:51.151Z,98904.63
2023-04-18T19:49:17.955Z,98903.91
2023-04-18T19:51:45.340Z,98903.25
2023-04-18T19:54:12.261Z,98901.03
2023-04-18T19:56:39.384Z,98894.44
2023-04-18T19:59:06.273Z,98895.72
2023-04-18T20:01:33.424Z,98892.63
2023-04-18T20:04:01.030Z,98890.44
2023-04-18T20:06:28.728Z,98893.47
2023-04-18T20:08:55.789Z,98896.47
2023-04-18T20:11:22.946Z,98896.72
2023-04-18T20:13:52.304Z,98891.00
2023-04-18T20:16:19.443Z,98892.16
2023-04-18T20:18:47.516Z,98887.13
2023-04-18T20:21:15.408Z,98887.38
2023-04-18T20:23:42.854Z,98891.91
2023-04-18T20:26:10.018Z,98888.44
2023-04-18T20:28:37.989Z,98882.38
2023-04-18T20:31:05.430Z,98879.75
2023-04-18T20:33:32.982Z,98877.97
2023-04-18T20:36:00.346Z,98875.19
2023-04-18T20:38:29.716Z,98868.34
2023-04-18T20:40:58.917Z,98869.59
2023-04-18T20:43:26.178Z,98866.53
2023-04-18T20:45:54.577Z,98868.75
2023-04-18T20:48:21.557Z,98866.44
2023-04-18T20:50:52.053Z,98861.50
2023-04-18T20:53:27.197Z,98864.25
2023-04-18T20:55:54.482Z,98852.00
2023-04-18T20:58:21.357Z,98857.31
2023-04-18T21:00:49.007Z,98847.78
2023-04-18T21:03:16.624Z,98848.66
2023-04-18T21:05:45.184Z,98850.47
2023-04-18T21:08:12.206Z,98844.31
2023-04-18T21:10:39.911Z,98846.94
2023-04-18T21:13:06.976Z,98846.78
2023-04-18T21:15:35.899Z,98844.97
2023-04-18T21:18:03.034Z,98835.34
2023-04-18T21:20:30.295Z,98832.53
2023-04-18T21:22:57.114Z,98828.06
2023-04-18T21:25:24.192Z,98822.72
2023-04-18T21:27:51.030Z,98823.53
2023-04-18T21:30:18.429Z,98816.50
2023-04-18T21:32:47.217Z,98816.44
2023-04-18T21:35:15.313Z,98818.31
2023-04-18T21:37:43.404Z,98823.34
2023-04-18T21:40:10.975Z,98815.28
2023-04-18T21:42:37.905Z,98819.38
2023-04-18T21:45:06.273Z,98817.47
2023-04-18T21:47:33.272Z,98820.84
2023-04-18T21:50:00.567Z,98815.41
2023-04-18T21:52:27.426Z,98809.94
2023-04-18T21:54:54.605Z,98815.03
2023-04-18T21:57:21.707Z,98814.69
2023-04-18T21:59:48.796Z,98810.13
2023-04-18T22:02:16.049Z,98802.94
2023-04-18T22:04:44.240Z,98806.34
2023-04-18T22:07:12.465Z,98808.09
2023-04-18T22:09:39.855Z,98802.94
2023-04-18T22:12:07.016Z,98804.78
2023-04-18T22:14:34.306Z,98797.88
2023-04-18T22:17:03.354Z,98800.56
2023-04-18T22:19:31.443Z,98793.13
2023-04-18T22:21:58.866Z,98787.06
2023-04-18T22:24:26.105Z,98779.28
2023-04-18T22:26:53.801Z,98784.50
2023-04-18T22:29:20.963Z,98784.50
2023-04-18T22:31:47.811Z,98775.88
2023-04-18T22:34:15.207Z,98771.59
2023-04-18T22:36:43.578Z,98766.63
2023-04-18T22:39:12.148Z,98768.56
2023-04-18T22:41:39.066Z,98762.81
2023-04-18T22:44:07.302Z,98761.38
2023-04-18T22:46:34.208Z,98758.97
2023-04-18T22:49:01.460Z,98762.59
2023-04-18T22:51:28.955Z,98756.69
2023-04-18T22:53:56.637Z,98754.28
2023-04-18T22:56:23.561Z,98751.94
2023-04-18T22:58:51.025Z,98748.78
2023-04-18T23:01:18.100Z,98740.28
2023-04-18T23:03:45.593Z,98742.28
2023-04-18T23:06:12.558Z,98738.03
2023-04-18T23:08:39.757Z,98731.22
2023-04-18T23:11:06.596Z,98733.13
2023-04-18T23:13:33.751Z,98732.38
2023-04-18T23:16:00.706Z,98723.75
2023-04-18T23:18:31.039Z,98720.41
2023-04-18T23:20:59.856Z,98721.38
2023-04-18T23:23:27.034Z,98717.81
2023-04-18T23:25:53.904Z,98705.63
2023-04-18T23:28:21.278Z,98711.72
2023-04-18T23:30:50.182Z,98710.88
2023-04-18T23:33:17.344Z,98698.78
2023-04-18T23:35:44.275Z,98692.72
2023-04-18T23:38:11.444Z,98695.41
2023-04-18T23:40:38.259Z,98690.28
2023-04-18T23:43:05.392Z,98694.78
2023-04-18T23:45:32.258Z,98687.03
2023-04-18T23:47:59.487Z,98685.25
2023-04-18T23:50:26.427Z,98676.53
2023-04-18T23:52:53.576Z,98676.56
2023-04-18T23:55:20.529Z,98674.94
2023-04-18T23:57:47.679Z,98677.56
